Time;durP1;ratioP1;P1;durP2;ratioP2;P2;SDS_P1;SDS_P2;PMS_P1;PMS_P2;Temp;Humidity;BMP_temperature;BMP_pressure;BME280_temperature;BME280_humidity;BME280_pressure;Samples;Min_cycle;Max_cycle;Signal;HPM_P1;HPM_P2
2021/11/19 00:00:46;;;;;;;20.60;14.68;;;5.40;99.90;;;;;;4979234;28;20669;-76
2021/11/19 00:03:15;;;;;;;20.05;14.20;;;5.40;99.90;;;;;;4978185;28;20614;-77
2021/11/19 00:05:43;;;;;;;24.10;14.35;;;5.30;99.90;;;;;;4977853;28;20304;-77
2021/11/19 00:08:12;;;;;;;24.02;14.50;;;5.20;99.90;;;;;;4978406;28;20205;-78
2021/11/19 00:10:39;;;;;;;20.38;15.18;;;5.20;99.90;;;;;;4976865;28;20213;-76
2021/11/19 00:13:07;;;;;;;21.15;13.82;;;5.20;99.90;;;;;;4977288;28;20609;-78
2021/11/19 00:15:35;;;;;;;18.58;14.48;;;5.10;99.90;;;;;;4977351;28;20252;-76
2021/11/19 00:18:02;;;;;;;21.02;14.50;;;5.10;99.90;;;;;;4976049;28;20228;-75
2021/11/19 00:20:31;;;;;;;22.48;13.60;;;5.10;99.90;;;;;;4977397;28;20639;-77
2021/11/19 00:23:00;;;;;;;24.35;15.45;;;5.10;99.90;;;;;;4976731;28;20237;-76
2021/11/19 00:25:29;;;;;;;18.25;14.70;;;5.10;99.90;;;;;;4976880;28;20303;-76
2021/11/19 00:27:56;;;;;;;20.42;15.00;;;5.10;99.90;;;;;;4977039;28;20307;-76
2021/11/19 00:30:25;;;;;;;20.88;13.20;;;5.10;99.90;;;;;;4976833;28;20231;-77
2021/11/19 00:32:52;;;;;;;23.65;13.90;;;5.10;99.90;;;;;;4977241;28;20229;-77
2021/11/19 00:35:20;;;;;;;22.48;14.77;;;5.10;99.90;;;;;;4976389;28;20628;-75
2021/11/19 00:37:51;;;;;;;25.58;13.98;;;5.00;99.90;;;;;;4977801;28;20312;-76
2021/11/19 00:40:27;;;;;;;20.55;14.60;;;5.00;99.90;;;;;;4987401;28;20327;-76
2021/11/19 00:42:55;;;;;;;23.80;13.88;;;5.00;99.90;;;;;;4984656;28;20663;-76
2021/11/19 00:45:24;;;;;;;24.73;13.95;;;5.00;99.90;;;;;;4976746;28;20212;-76
2021/11/19 00:47:51;;;;;;;21.75;15.35;;;5.00;99.90;;;;;;4977237;28;20299;-76
2021/11/19 00:50:20;;;;;;;23.38;15.07;;;5.00;99.90;;;;;;4976781;28;20562;-76
2021/11/19 00:52:47;;;;;;;21.27;14.55;;;5.00;99.90;;;;;;4976998;28;20235;-75
2021/11/19 00:55:14;;;;;;;19.90;13.88;;;5.10;99.90;;;;;;4977128;28;20212;-76
2021/11/19 00:57:42;;;;;;;21.77;14.45;;;5.10;99.90;;;;;;4977480;28;20225;-77
2021/11/19 01:00:14;;;;;;;24.00;13.55;;;5.20;99.90;;;;;;4977132;28;20681;-77
2021/11/19 01:02:41;;;;;;;23.27;14.93;;;5.30;99.90;;;;;;4980152;28;20656;-74
2021/11/19 01:05:09;;;;;;;24.77;13.80;;;5.30;99.90;;;;;;4994961;28;20217;-75
2021/11/19 01:07:36;;;;;;;22.38;14.57;;;5.30;99.90;;;;;;4992326;28;20236;-76
2021/11/19 01:10:09;;;;;;;23.23;13.80;;;5.30;99.90;;;;;;4975277;28;20745;-77
2021/11/19 01:12:36;;;;;;;24.90;15.27;;;5.40;99.90;;;;;;4975427;28;20367;-75
2021/11/19 01:15:08;;;;;;;23.27;14.13;;;5.50;99.90;;;;;;4975526;28;20300;-75
2021/11/19 01:17:41;;;;;;;19.83;13.55;;;5.50;99.90;;;;;;4975581;28;20849;-76
2021/11/19 01:20:14;;;;;;;34.20;13.30;;;5.50;99.90;;;;;;4975691;28;20209;-76
2021/11/19 01:22:45;;;;;;;25.27;14.88;;;5.60;99.90;;;;;;4975812;28;20692;-76
2021/11/19 01:25:16;;;;;;;24.40;14.68;;;5.60;99.90;;;;;;4988928;28;20224;-76
2021/11/19 01:27:43;;;;;;;20.10;13.50;;;5.60;99.90;;;;;;4990371;28;20273;-76
2021/11/19 01:30:13;;;;;;;27.23;13.95;;;5.60;99.90;;;;;;4987993;28;20321;-76
2021/11/19 01:32:42;;;;;;;22.70;14.30;;;5.60;99.90;;;;;;4980386;28;20236;-76
2021/11/19 01:35:09;;;;;;;20.67;13.77;;;5.60;99.90;;;;;;4982571;28;20212;-76
2021/11/19 01:37:36;;;;;;;22.63;13.43;;;5.70;99.90;;;;;;4984168;28;20260;-75
2021/11/19 01:40:04;;;;;;;18.50;13.15;;;5.70;99.70;;;;;;4979094;28;20221;-75
2021/11/19 01:42:36;;;;;;;21.95;12.82;;;5.80;99.50;;;;;;4983363;28;20721;-76
2021/11/19 01:45:09;;;;;;;17.60;12.52;;;5.80;99.00;;;;;;4988039;28;20205;-76
2021/11/19 01:47:38;;;;;;;23.98;13.50;;;5.80;98.70;;;;;;4989897;28;20209;-76
2021/11/19 01:50:11;;;;;;;23.85;14.25;;;5.80;98.60;;;;;;4992789;28;20220;-76
2021/11/19 01:52:43;;;;;;;28.33;15.02;;;5.80;98.00;;;;;;4987386;28;20260;-75
2021/11/19 01:55:16;;;;;;;24.23;13.30;;;5.80;98.10;;;;;;4980914;28;20644;-76
2021/11/19 01:57:48;;;;;;;23.65;13.73;;;5.90;98.30;;;;;;4980029;28;20245;-75
2021/11/19 02:00:19;;;;;;;27.05;14.15;;;5.90;98.00;;;;;;4979570;28;20657;-75
2021/11/19 02:02:50;;;;;;;28.38;13.45;;;5.90;98.00;;;;;;4979132;28;20242;-76
2021/11/19 02:05:24;;;;;;;25.90;13.52;;;6.00;98.00;;;;;;4979200;28;20194;-75
2021/11/19 02:07:53;;;;;;;22.77;14.10;;;6.10;97.80;;;;;;4979372;28;20241;-77
2021/11/19 02:10:27;;;;;;;23.27;12.60;;;6.10;97.40;;;;;;4978931;28;20259;-75
2021/11/19 02:12:59;;;;;;;24.17;13.68;;;6.10;97.30;;;;;;4979625;28;20300;-76
2021/11/19 02:15:30;;;;;;;21.40;13.60;;;6.10;97.30;;;;;;4979361;28;20209;-75
2021/11/19 02:18:08;;;;;;;20.33;13.50;;;6.00;97.30;;;;;;4979729;28;20217;-77
2021/11/19 02:20:39;;;;;;;24.15;13.85;;;6.00;97.30;;;;;;4979944;28;20259;-75
2021/11/19 02:23:11;;;;;;;21.33;13.75;;;6.10;97.70;;;;;;4979323;28;20260;-75
2021/11/19 02:25:46;;;;;;;21.20;14.25;;;6.00;97.30;;;;;;4981275;28;20197;-76
2021/11/19 02:28:17;;;;;;;22.63;13.07;;;6.00;97.40;;;;;;4987412;28;20674;-76
2021/11/19 02:30:49;;;;;;;27.48;13.57;;;6.00;97.90;;;;;;4985713;28;20510;-76
2021/11/19 02:33:17;;;;;;;19.92;13.70;;;6.00;98.00;;;;;;4986392;28;20320;-76
2021/11/19 02:35:50;;;;;;;25.20;14.32;;;6.00;98.40;;;;;;4988433;28;20213;-76
2021/11/19 02:38:20;;;;;;;26.45;14.52;;;6.00;98.00;;;;;;4991475;28;20209;-76
2021/11/19 02:40:50;;;;;;;22.95;13.35;;;6.00;98.40;;;;;;4987353;28;20650;-76
2021/11/19 02:43:21;;;;;;;21.92;12.68;;;6.00;98.30;;;;;;4978023;28;20706;-75
2021/11/19 02:45:52;;;;;;;24.45;14.00;;;6.10;98.60;;;;;;4978692;28;20221;-76
2021/11/19 02:48:22;;;;;;;25.95;14.48;;;6.10;99.00;;;;;;4978463;28;20217;-76
2021/11/19 02:50:52;;;;;;;27.55;15.25;;;6.10;98.70;;;;;;4977507;28;20646;-75
2021/11/19 02:53:20;;;;;;;32.42;14.35;;;6.10;98.80;;;;;;4978178;28;20252;-77
2021/11/19 02:55:50;;;;;;;25.02;14.00;;;6.20;98.60;;;;;;4978210;28;20665;-76
2021/11/19 02:58:20;;;;;;;26.42;16.08;;;6.20;98.90;;;;;;4989306;28;20740;-76
2021/11/19 03:00:51;;;;;;;27.10;15.68;;;6.20;98.90;;;;;;4990707;28;20213;-76
2021/11/19 03:03:19;;;;;;;30.88;15.60;;;6.20;98.20;;;;;;4991005;28;20233;-75
2021/11/19 03:05:46;;;;;;;24.77;14.10;;;6.30;98.20;;;;;;4991371;28;20475;-75
2021/11/19 03:08:15;;;;;;;21.23;13.10;;;6.30;98.10;;;;;;4990533;28;20205;-76
2021/11/19 03:10:49;;;;;;;21.80;13.60;;;6.30;98.10;;;;;;4990092;28;20221;-76
2021/11/19 03:13:18;;;;;;;24.95;14.40;;;6.20;97.50;;;;;;4990876;28;20629;-76
2021/11/19 03:15:48;;;;;;;24.55;14.05;;;6.30;97.60;;;;;;4991099;28;20280;-76
2021/11/19 03:18:17;;;;;;;22.95;13.52;;;6.30;97.40;;;;;;4990471;28;20221;-76
2021/11/19 03:20:46;;;;;;;29.25;14.05;;;6.30;97.50;;;;;;4977797;28;20215;-76
2021/11/19 03:23:15;;;;;;;23.60;13.00;;;6.20;97.40;;;;;;4977405;28;20293;-76
2021/11/19 03:25:44;;;;;;;21.25;13.82;;;6.30;97.60;;;;;;4977951;28;20217;-76
2021/11/19 03:28:14;;;;;;;23.17;14.15;;;6.30;97.40;;;;;;4978341;28;20213;-75
2021/11/19 03:30:43;;;;;;;29.25;13.82;;;6.30;97.40;;;;;;4978483;28;20292;-75
2021/11/19 03:33:13;;;;;;;31.98;14.82;;;6.30;97.40;;;;;;4978705;28;20249;-76
2021/11/19 03:35:40;;;;;;;19.63;12.70;;;6.30;97.40;;;;;;4977900;28;20210;-76
2021/11/19 03:38:08;;;;;;;24.90;14.13;;;6.30;97.40;;;;;;4977171;28;20640;-76
2021/11/19 03:40:38;;;;;;;23.35;14.27;;;6.40;97.40;;;;;;4987726;28;20220;-75
2021/11/19 03:43:09;;;;;;;24.73;14.38;;;6.40;97.40;;;;;;4986647;28;20243;-76
2021/11/19 03:45:44;;;;;;;24.33;13.43;;;6.30;97.40;;;;;;4977245;28;20213;-75
2021/11/19 03:48:12;;;;;;;23.05;13.68;;;6.50;97.50;;;;;;4978857;28;20295;-74
2021/11/19 03:50:42;;;;;;;23.50;13.50;;;6.40;97.00;;;;;;4978148;28;20300;-76
2021/11/19 03:53:11;;;;;;;25.67;14.88;;;6.40;96.90;;;;;;4978693;28;20323;-75
2021/11/19 03:55:45;;;;;;;25.13;13.88;;;6.40;97.10;;;;;;4978897;28;20216;-78
2021/11/19 03:58:14;;;;;;;25.50;13.05;;;6.40;97.00;;;;;;4977063;28;20206;-76
2021/11/19 04:00:43;;;;;;;26.70;13.73;;;6.40;96.80;;;;;;4976740;28;20293;-75
2021/11/19 04:03:12;;;;;;;25.40;13.70;;;6.50;96.70;;;;;;4976441;28;20252;-75
2021/11/19 04:05:39;;;;;;;20.15;13.30;;;6.50;96.40;;;;;;4976576;28;20232;-76
2021/11/19 04:08:06;;;;;;;23.42;14.55;;;6.50;96.40;;;;;;4977256;28;20300;-75
2021/11/19 04:10:34;;;;;;;24.27;14.32;;;6.40;96.50;;;;;;4977010;28;20213;-76
2021/11/19 04:13:03;;;;;;;24.42;14.57;;;6.50;96.70;;;;;;4976546;28;20228;-77
2021/11/19 04:15:33;;;;;;;26.58;14.30;;;6.50;96.80;;;;;;4976139;28;20209;-76
2021/11/19 04:18:01;;;;;;;27.83;14.48;;;6.50;96.70;;;;;;4976069;28;20304;-76
2021/11/19 04:20:29;;;;;;;23.20;13.30;;;6.50;96.80;;;;;;4976429;28;20775;-77
2021/11/19 04:22:56;;;;;;;24.35;13.77;;;6.50;96.80;;;;;;4976946;28;20244;-76
2021/11/19 04:25:25;;;;;;;24.60;12.80;;;6.50;96.70;;;;;;4976660;28;20707;-76
2021/11/19 04:27:53;;;;;;;27.05;13.40;;;6.50;96.80;;;;;;4978037;28;20344;-76
2021/11/19 04:30:37;;;;;;;21.25;13.23;;;6.50;96.70;;;;;;4981721;28;20236;-77
2021/11/19 04:33:05;;;;;;;20.25;13.18;;;6.50;96.80;;;;;;4983581;28;20229;-77
2021/11/19 04:35:33;;;;;;;22.50;13.20;;;6.50;96.50;;;;;;4983284;28;20221;-76
2021/11/19 04:38:01;;;;;;;25.02;13.43;;;6.60;96.80;;;;;;4977009;28;20209;-77
2021/11/19 04:40:28;;;;;;;32.17;15.10;;;6.60;96.40;;;;;;4976739;28;20299;-76
2021/11/19 04:42:56;;;;;;;24.20;12.85;;;6.60;96.50;;;;;;4977407;28;20319;-76
2021/11/19 04:45:28;;;;;;;25.17;13.27;;;6.60;96.50;;;;;;4976407;28;20257;-77
2021/11/19 04:47:56;;;;;;;21.80;13.45;;;6.50;96.50;;;;;;4977127;28;20300;-76
2021/11/19 04:50:25;;;;;;;26.58;13.70;;;6.60;96.70;;;;;;4977033;28;20218;-76
2021/11/19 04:52:53;;;;;;;25.60;14.05;;;6.50;96.50;;;;;;4978148;28;20225;-77
2021/11/19 04:55:20;;;;;;;21.55;13.82;;;6.50;96.70;;;;;;4976684;28;20263;-76
2021/11/19 04:57:47;;;;;;;23.48;14.57;;;6.60;96.70;;;;;;4976765;28;20220;-77
2021/11/19 05:00:19;;;;;;;21.42;13.38;;;6.50;96.90;;;;;;4977299;28;20225;-76
2021/11/19 05:02:48;;;;;;;19.17;13.13;;;6.60;97.50;;;;;;4985979;28;20235;-76
2021/11/19 05:05:17;;;;;;;23.50;13.82;;;6.60;97.50;;;;;;4997599;28;20236;-76
2021/11/19 05:07:44;;;;;;;30.73;15.05;;;6.60;97.10;;;;;;4993446;28;20299;-76
2021/11/19 05:10:12;;;;;;;21.92;13.50;;;6.60;97.20;;;;;;4983940;28;20736;-77
2021/11/19 05:12:42;;;;;;;25.55;14.75;;;6.60;97.50;;;;;;4984137;28;20328;-76
2021/11/19 05:15:11;;;;;;;22.73;14.40;;;6.60;97.40;;;;;;4985110;28;20300;-76
2021/11/19 05:17:38;;;;;;;23.60;14.90;;;6.60;97.50;;;;;;4985569;28;20305;-77
2021/11/19 05:20:09;;;;;;;26.80;13.93;;;6.60;97.50;;;;;;4985949;28;20260;-75
2021/11/19 05:22:36;;;;;;;25.90;14.73;;;6.60;97.50;;;;;;4992780;28;20272;-76
2021/11/19 05:25:05;;;;;;;25.83;13.40;;;6.60;97.60;;;;;;4996830;28;20204;-77
2021/11/19 05:27:32;;;;;;;24.50;13.77;;;6.70;97.60;;;;;;4997588;28;20216;-77
2021/11/19 05:29:59;;;;;;;22.27;13.55;;;6.70;97.50;;;;;;4995666;28;20276;-76
2021/11/19 05:32:27;;;;;;;20.63;11.63;;;6.80;97.00;;;;;;4997583;28;20219;-76
2021/11/19 05:34:54;;;;;;;24.90;13.27;;;6.80;96.60;;;;;;4998552;28;20213;-77
2021/11/19 05:37:22;;;;;;;20.30;11.43;;;6.80;96.00;;;;;;4998960;28;20288;-76
2021/11/19 05:39:49;;;;;;;18.05;11.95;;;6.80;95.90;;;;;;4999518;28;20237;-76
2021/11/19 05:42:15;;;;;;;18.45;11.00;;;6.80;95.60;;;;;;4992322;28;20551;-76
2021/11/19 05:44:43;;;;;;;19.15;11.80;;;6.80;95.50;;;;;;4992395;28;20240;-76
2021/11/19 05:47:11;;;;;;;15.65;10.95;;;6.90;95.50;;;;;;4995274;28;20213;-77
2021/11/19 05:49:39;;;;;;;21.95;12.00;;;6.90;94.90;;;;;;4997669;28;20205;-76
2021/11/19 05:52:09;;;;;;;22.00;13.90;;;6.90;94.90;;;;;;4995164;28;20209;-76
2021/11/19 05:54:38;;;;;;;20.98;12.50;;;6.90;94.60;;;;;;4987189;28;20212;-76
2021/11/19 05:57:08;;;;;;;22.55;12.55;;;6.80;94.20;;;;;;4985701;28;20228;-76
2021/11/19 05:59:35;;;;;;;20.42;11.90;;;6.80;94.70;;;;;;4984059;28;20224;-76
2021/11/19 06:02:03;;;;;;;18.65;12.07;;;6.90;95.20;;;;;;4984058;28;20217;-76
2021/11/19 06:04:30;;;;;;;19.33;12.20;;;6.90;94.70;;;;;;4995173;28;20205;-76
2021/11/19 06:06:56;;;;;;;21.67;12.80;;;6.80;94.70;;;;;;4999304;28;20209;-77
2021/11/19 06:09:28;;;;;;;19.33;11.85;;;6.90;95.20;;;;;;4999367;28;20209;-77
2021/11/19 06:12:03;;;;;;;22.13;12.23;;;6.80;94.30;;;;;;4998073;28;20244;-77
2021/11/19 06:14:34;;;;;;;19.90;11.88;;;6.80;94.80;;;;;;4995479;28;20208;-75
2021/11/19 06:17:05;;;;;;;18.95;11.80;;;6.80;94.90;;;;;;4982262;28;20209;-76
2021/11/19 06:19:36;;;;;;;24.05;12.93;;;6.80;95.20;;;;;;4981143;28;20256;-76
2021/11/19 06:22:09;;;;;;;18.50;12.35;;;6.80;94.70;;;;;;4981966;28;20281;-76
2021/11/19 06:24:40;;;;;;;22.10;11.48;;;6.80;94.90;;;;;;4983352;28;20212;-76
2021/11/19 06:27:10;;;;;;;22.20;13.82;;;6.80;94.90;;;;;;4982235;28;20292;-76
2021/11/19 06:29:37;;;;;;;25.17;12.80;;;6.80;95.00;;;;;;4980736;28;20584;-76
2021/11/19 06:32:05;;;;;;;21.52;12.35;;;6.80;94.80;;;;;;4980560;28;20198;-77
2021/11/19 06:34:32;;;;;;;25.95;13.40;;;6.80;94.90;;;;;;4981306;28;20208;-76
2021/11/19 06:36:59;;;;;;;21.08;12.75;;;6.80;94.90;;;;;;4983222;28;20213;-76
2021/11/19 06:39:27;;;;;;;22.27;11.85;;;6.80;95.00;;;;;;4990102;28;20229;-77
2021/11/19 06:41:54;;;;;;;22.33;12.77;;;6.80;95.50;;;;;;4991257;28;20229;-75
2021/11/19 06:44:22;;;;;;;22.00;12.07;;;6.80;95.50;;;;;;4980327;28;20248;-76
2021/11/19 06:46:49;;;;;;;23.63;12.00;;;6.90;95.30;;;;;;4980207;28;20215;-75
2021/11/19 06:49:17;;;;;;;22.88;12.80;;;6.90;95.30;;;;;;4981739;28;20205;-77
2021/11/19 06:51:44;;;;;;;21.17;12.48;;;6.90;94.90;;;;;;4986845;28;20232;-76
2021/11/19 06:54:12;;;;;;;18.98;12.40;;;6.90;94.60;;;;;;4997483;28;20217;-78
2021/11/19 06:56:39;;;;;;;19.70;12.25;;;7.00;94.60;;;;;;4998596;28;20211;-74
2021/11/19 06:59:07;;;;;;;26.10;12.48;;;7.00;94.20;;;;;;4996712;28;20216;-78
2021/11/19 07:01:37;;;;;;;26.08;14.45;;;7.00;94.10;;;;;;4987964;28;20300;-75
2021/11/19 07:04:05;;;;;;;26.83;12.18;;;7.00;94.50;;;;;;4982397;28;20304;-77
2021/11/19 07:06:32;;;;;;;21.10;11.93;;;6.90;94.10;;;;;;4990054;28;20241;-75
2021/11/19 07:09:00;;;;;;;20.02;12.60;;;6.90;94.10;;;;;;4998516;28;20256;-74
2021/11/19 07:11:28;;;;;;;26.27;12.40;;;7.00;94.30;;;;;;4998878;28;20265;-76
2021/11/19 07:13:56;;;;;;;20.80;11.75;;;7.00;94.20;;;;;;4987698;28;20257;-75
2021/11/19 07:16:25;;;;;;;20.67;11.60;;;7.10;94.20;;;;;;4993604;28;20608;-77
2021/11/19 07:18:54;;;;;;;27.88;14.00;;;7.10;93.40;;;;;;4982202;28;20685;-76
2021/11/19 07:21:22;;;;;;;24.58;12.35;;;7.10;93.00;;;;;;4967240;28;20459;-77
2021/11/19 07:23:50;;;;;;;21.10;12.07;;;7.10;93.00;;;;;;4961553;28;20698;-76
2021/11/19 07:26:18;;;;;;;25.85;11.95;;;7.10;92.40;;;;;;4960011;28;20216;-78
2021/11/19 07:28:46;;;;;;;18.48;11.48;;;7.20;92.50;;;;;;4961963;29;20694;-77
2021/11/19 07:31:15;;;;;;;17.67;11.50;;;7.20;92.30;;;;;;4959555;29;20697;-77
2021/11/19 07:33:42;;;;;;;21.95;12.25;;;7.20;91.90;;;;;;4960293;28;20229;-77
2021/11/19 07:36:11;;;;;;;28.38;12.10;;;7.20;91.60;;;;;;4961543;29;20209;-76
2021/11/19 07:38:40;;;;;;;21.30;11.85;;;7.30;91.30;;;;;;4971716;29;20273;-76
2021/11/19 07:41:09;;;;;;;21.38;10.90;;;7.30;91.50;;;;;;4974608;29;20244;-79
2021/11/19 07:43:40;;;;;;;20.40;10.98;;;7.40;91.30;;;;;;4972964;28;20268;-76
2021/11/19 07:46:07;;;;;;;20.30;11.57;;;7.40;90.70;;;;;;4974183;29;20236;-75
2021/11/19 07:48:36;;;;;;;17.65;11.82;;;7.50;90.30;;;;;;4973073;29;20220;-76
2021/11/19 07:51:06;;;;;;;24.25;12.88;;;7.50;89.70;;;;;;4977072;28;20213;-76
2021/11/19 07:53:35;;;;;;;21.65;11.30;;;7.50;88.40;;;;;;4978345;28;20210;-76
2021/11/19 07:56:03;;;;;;;19.52;11.00;;;7.60;87.80;;;;;;4978836;29;20206;-75
2021/11/19 07:58:30;;;;;;;20.10;11.82;;;7.60;87.70;;;;;;4974569;29;20218;-77
2021/11/19 08:00:59;;;;;;;19.65;11.57;;;7.70;87.90;;;;;;4960586;29;20226;-77
2021/11/19 08:03:26;;;;;;;19.50;10.80;;;7.70;87.60;;;;;;4960382;28;20257;-79
2021/11/19 08:05:56;;;;;;;20.65;11.38;;;7.70;86.70;;;;;;4958862;29;20206;-77
2021/11/19 08:08:24;;;;;;;22.05;11.35;;;7.70;86.10;;;;;;4958411;29;20312;-76
2021/11/19 08:10:53;;;;;;;19.02;11.15;;;7.70;85.70;;;;;;4958430;29;20213;-76
2021/11/19 08:13:21;;;;;;;17.75;10.93;;;7.80;85.90;;;;;;4960940;28;20276;-78
2021/11/19 08:15:48;;;;;;;20.17;11.13;;;7.90;84.90;;;;;;4959172;29;20214;-78
2021/11/19 08:18:18;;;;;;;22.80;12.60;;;7.90;83.90;;;;;;4959020;29;20237;-77
2021/11/19 08:20:47;;;;;;;22.67;12.15;;;7.90;83.90;;;;;;4957656;28;20644;-76
2021/11/19 08:23:16;;;;;;;16.85;10.50;;;7.90;84.50;;;;;;4964591;28;20292;-77
2021/11/19 08:25:44;;;;;;;21.00;11.40;;;8.00;83.70;;;;;;4979634;28;20209;-77
2021/11/19 08:28:12;;;;;;;23.80;13.30;;;8.00;82.80;;;;;;4976509;28;20292;-77
2021/11/19 08:30:47;;;;;;;17.55;11.38;;;8.10;82.90;;;;;;4977699;28;20211;-76
2021/11/19 08:33:15;;;;;;;21.33;11.73;;;8.00;81.80;;;;;;4964042;28;20236;-76
2021/11/19 08:35:44;;;;;;;18.17;11.38;;;8.00;82.30;;;;;;4977468;28;20723;-76
2021/11/19 08:38:18;;;;;;;18.60;12.10;;;8.00;82.10;;;;;;4974374;28;20215;-76
2021/11/19 08:40:46;;;;;;;19.88;11.30;;;8.00;82.20;;;;;;4958074;29;20255;-78
2021/11/19 08:43:18;;;;;;;20.90;11.80;;;8.10;82.20;;;;;;4958613;28;20230;-77
2021/11/19 08:45:46;;;;;;;19.02;11.30;;;8.20;81.80;;;;;;4978066;28;20215;-78
2021/11/19 08:48:13;;;;;;;22.85;11.93;;;8.30;80.00;;;;;;4977999;28;20296;-77
2021/11/19 08:50:42;;;;;;;20.88;10.65;;;8.30;79.00;;;;;;4978632;28;20209;-76
2021/11/19 08:53:13;;;;;;;21.08;10.70;;;8.30;78.90;;;;;;4972604;28;20253;-78
2021/11/19 08:55:41;;;;;;;17.15;11.02;;;8.40;78.80;;;;;;4978746;28;20224;-79
2021/11/19 08:58:08;;;;;;;23.48;10.77;;;8.50;78.40;;;;;;4962717;28;20401;-78
2021/11/19 09:00:39;;;;;;;17.90;11.00;;;8.60;76.00;;;;;;4985991;28;20277;-77
2021/11/19 09:03:09;;;;;;;15.30;10.65;;;8.50;75.60;;;;;;4974135;28;20229;-77
2021/11/19 09:05:37;;;;;;;17.30;10.25;;;8.50;76.00;;;;;;4971262;28;20201;-76
2021/11/19 09:08:06;;;;;;;16.52;10.15;;;8.50;76.00;;;;;;4978315;28;20219;-77
2021/11/19 09:10:33;;;;;;;15.30;10.05;;;8.60;75.50;;;;;;4980785;28;20236;-76
2021/11/19 09:13:00;;;;;;;16.05;9.85;;;8.60;74.50;;;;;;4977654;28;20267;-75
2021/11/19 09:15:28;;;;;;;16.08;10.13;;;8.70;74.10;;;;;;4967016;28;20638;-77
2021/11/19 09:18:20;;;;;;;13.45;9.55;;;8.80;73.30;;;;;;4956263;29;20209;-76
2021/11/19 09:20:59;;;;;;;21.83;9.15;;;8.80;72.70;;;;;;4962607;28;20795;-76
2021/11/19 09:23:28;;;;;;;15.88;10.48;;;8.80;72.00;;;;;;4957260;28;20320;-76
2021/11/19 09:25:59;;;;;;;16.90;9.70;;;8.80;71.70;;;;;;4991881;28;20213;-77
2021/11/19 09:28:30;;;;;;;18.38;9.35;;;8.70;71.80;;;;;;4983388;28;20229;-77
2021/11/19 09:31:01;;;;;;;16.40;9.73;;;8.80;71.70;;;;;;4976969;28;20209;-78
2021/11/19 09:33:29;;;;;;;14.63;9.05;;;8.90;71.70;;;;;;4966536;28;20293;-76
2021/11/19 09:35:57;;;;;;;16.73;9.35;;;9.00;70.40;;;;;;4956578;28;20209;-77
2021/11/19 09:38:26;;;;;;;16.50;9.05;;;9.10;70.30;;;;;;4971943;29;20265;-76
2021/11/19 09:41:13;;;;;;;13.88;9.30;;;9.10;69.90;;;;;;4972832;28;20217;-78
2021/11/19 09:43:44;;;;;;;22.02;11.32;;;9.00;69.10;;;;;;4976577;28;20295;-76
2021/11/19 09:46:50;;;;;;;13.52;8.27;;;9.00;69.20;;;;;;4981159;28;20197;-76
2021/11/19 09:49:53;;;;;;;13.30;9.38;;;9.00;69.30;;;;;;4979267;28;20566;-76
2021/11/19 09:53:02;;;;;;;14.23;9.00;;;9.10;69.10;;;;;;4961044;29;20236;-75
2021/11/19 09:55:51;;;;;;;13.52;8.52;;;9.00;69.50;;;;;;4942558;29;20591;-75
2021/11/19 09:58:44;;;;;;;20.10;9.00;;;9.00;69.90;;;;;;4958031;29;20202;-75
2021/11/19 10:01:47;;;;;;;13.68;7.90;;;9.00;69.70;;;;;;4958850;28;20226;-75
2021/11/19 10:04:54;;;;;;;15.68;8.90;;;9.10;69.40;;;;;;4958127;28;20332;-77
2021/11/19 10:07:29;;;;;;;12.10;8.10;;;9.00;69.40;;;;;;4958373;28;20210;-77
2021/11/19 10:10:11;;;;;;;9.10;6.75;;;9.10;69.40;;;;;;4958040;29;20202;-75
2021/11/19 10:12:44;;;;;;;12.73;7.20;;;9.10;68.80;;;;;;4959613;28;20697;-76
2021/11/19 10:15:19;;;;;;;16.33;7.97;;;9.00;69.60;;;;;;4958714;29;20217;-77
2021/11/19 10:17:56;;;;;;;14.48;7.95;;;9.10;69.60;;;;;;4958263;28;20281;-77
2021/11/19 10:20:29;;;;;;;13.77;7.65;;;9.20;68.90;;;;;;4957896;29;20230;-76
2021/11/19 10:22:57;;;;;;;15.70;9.00;;;9.20;68.90;;;;;;4961960;28;20228;-77
2021/11/19 10:25:31;;;;;;;11.68;7.38;;;9.20;68.10;;;;;;4977687;28;20681;-77
2021/11/19 10:28:03;;;;;;;12.55;7.70;;;9.20;69.10;;;;;;4976351;28;20272;-77
2021/11/19 10:30:35;;;;;;;15.65;8.85;;;9.20;68.80;;;;;;4977423;28;20193;-77
2021/11/19 10:33:06;;;;;;;19.65;9.18;;;9.20;68.80;;;;;;4978354;28;20364;-75
2021/11/19 10:35:50;;;;;;;17.42;8.93;;;9.20;68.70;;;;;;4979667;28;20197;-77
2021/11/19 10:39:09;;;;;;;14.10;8.75;;;9.10;69.00;;;;;;4971881;28;20208;-76
2021/11/19 10:42:19;;;;;;;17.10;8.82;;;9.20;69.00;;;;;;4958632;29;20468;-76
2021/11/19 10:45:08;;;;;;;16.70;8.85;;;9.20;68.90;;;;;;4959091;28;20226;-77
2021/11/19 10:48:03;;;;;;;15.85;9.00;;;9.20;69.20;;;;;;4961692;29;20210;-76
2021/11/19 10:51:13;;;;;;;13.88;9.30;;;9.10;69.70;;;;;;4968347;29;20296;-76
2021/11/19 10:54:31;;;;;;;14.02;7.80;;;9.10;69.40;;;;;;4959717;28;20312;-78
2021/11/19 10:57:08;;;;;;;11.63;8.60;;;9.20;69.50;;;;;;4916198;29;20219;-75
2021/11/19 10:59:39;;;;;;;12.90;8.27;;;9.20;68.60;;;;;;4976392;28;20217;-76
2021/11/19 11:02:37;;;;;;;16.35;10.25;;;9.30;68.80;;;;;;4973402;28;20264;-77
2021/11/19 11:05:22;;;;;;;17.95;9.40;;;9.30;67.90;;;;;;4958494;29;20215;-75
2021/11/19 11:08:06;;;;;;;17.15;9.95;;;9.30;67.90;;;;;;4964097;28;20292;-75
2021/11/19 11:10:39;;;;;;;15.50;9.93;;;9.20;68.40;;;;;;4974871;28;20201;-75
2021/11/19 11:13:29;;;;;;;19.02;10.30;;;9.30;68.20;;;;;;4975146;28;20891;-74
2021/11/19 11:16:00;;;;;;;16.60;9.63;;;9.40;68.00;;;;;;4976426;28;20259;-74
2021/11/19 11:18:30;;;;;;;15.05;9.85;;;9.50;68.10;;;;;;4971145;28;20219;-77
2021/11/19 11:21:08;;;;;;;13.68;9.32;;;9.50;68.20;;;;;;4960716;28;20234;-76
2021/11/19 11:23:50;;;;;;;18.65;9.23;;;9.50;68.10;;;;;;4969137;28;20311;-75
2021/11/19 11:26:20;;;;;;;17.83;10.10;;;9.40;68.00;;;;;;4975967;28;20201;-75
2021/11/19 11:28:51;;;;;;;14.93;8.95;;;9.40;68.10;;;;;;4977369;28;20641;-75
2021/11/19 11:31:43;;;;;;;13.60;8.70;;;9.40;68.70;;;;;;4963740;28;20214;-74
2021/11/19 11:34:23;;;;;;;11.00;8.23;;;9.40;68.00;;;;;;4956826;29;20324;-75
2021/11/19 11:36:58;;;;;;;11.75;8.45;;;9.40;68.00;;;;;;4956791;28;20190;-79
2021/11/19 11:39:38;;;;;;;15.20;9.75;;;9.40;68.10;;;;;;4956721;29;20200;-75
2021/11/19 11:42:10;;;;;;;13.65;9.02;;;9.40;68.00;;;;;;4956072;28;20252;-75
2021/11/19 11:44:41;;;;;;;13.35;7.75;;;9.50;68.10;;;;;;4955790;28;20194;-77
2021/11/19 11:47:13;;;;;;;14.88;8.80;;;9.50;68.10;;;;;;4956366;29;20408;-76
2021/11/19 11:49:52;;;;;;;17.08;8.60;;;9.50;68.20;;;;;;4970016;28;20209;-74
2021/11/19 11:52:31;;;;;;;11.57;8.13;;;9.50;68.20;;;;;;4974849;28;20245;-75
2021/11/19 11:55:20;;;;;;;14.35;7.75;;;9.40;68.00;;;;;;4957218;28;20226;-75
2021/11/19 11:58:07;;;;;;;11.88;7.50;;;9.40;68.90;;;;;;4956330;28;20198;-77
2021/11/19 12:00:42;;;;;;;11.02;7.90;;;9.40;68.80;;;;;;4955488;29;20674;-75
2021/11/19 12:03:27;;;;;;;14.77;6.90;;;9.40;69.00;;;;;;4955700;28;20761;-77
2021/11/19 12:05:57;;;;;;;11.70;7.47;;;9.40;69.10;;;;;;4969573;28;20231;-75
2021/11/19 12:08:53;;;;;;;10.50;6.80;;;9.50;69.30;;;;;;4963945;28;20256;-74
2021/11/19 12:12:05;;;;;;;11.32;6.97;;;9.40;69.50;;;;;;4954220;28;20210;-74
2021/11/19 12:14:43;;;;;;;12.07;6.50;;;9.40;70.00;;;;;;4956690;28;20212;-75
2021/11/19 12:17:21;;;;;;;10.13;6.97;;;9.30;70.40;;;;;;4956385;29;20204;-77
2021/11/19 12:20:03;;;;;;;8.73;5.80;;;9.20;70.50;;;;;;4956613;29;20730;-76
2021/11/19 12:22:37;;;;;;;8.85;6.15;;;9.20;70.90;;;;;;4953502;28;20264;-76
2021/11/19 12:25:28;;;;;;;10.13;6.45;;;9.30;71.90;;;;;;4953432;29;20220;-75
2021/11/19 12:27:57;;;;;;;8.57;6.43;;;9.40;71.10;;;;;;4960952;28;20201;-75
2021/11/19 12:30:35;;;;;;;9.38;7.00;;;9.50;70.20;;;;;;4972798;28;20213;-74
2021/11/19 12:33:09;;;;;;;10.82;6.85;;;9.50;70.10;;;;;;4974284;28;20591;-75
2021/11/19 12:35:40;;;;;;;8.73;6.40;;;9.50;69.90;;;;;;4974712;28;20224;-75
2021/11/19 12:38:11;;;;;;;9.95;6.38;;;9.50;69.80;;;;;;4961395;28;20592;-76
2021/11/19 12:40:46;;;;;;;6.80;6.05;;;9.40;70.20;;;;;;4989793;28;20715;-75
2021/11/19 12:43:45;;;;;;;9.95;5.82;;;9.40;70.80;;;;;;4977945;28;20285;-75
2021/11/19 12:46:43;;;;;;;13.52;6.03;;;9.40;71.20;;;;;;4956843;29;20259;-77
2021/11/19 12:49:33;;;;;;;6.45;5.55;;;9.30;71.60;;;;;;4969527;28;20799;-77
2021/11/19 12:52:04;;;;;;;11.00;6.88;;;9.30;72.00;;;;;;4974545;28;20219;-76
2021/11/19 12:54:39;;;;;;;8.95;5.90;;;9.30;72.50;;;;;;4967456;28;20197;-78
2021/11/19 12:57:29;;;;;;;10.30;6.10;;;9.30;72.50;;;;;;4973560;28;20299;-77
2021/11/19 13:00:05;;;;;;;12.43;6.45;;;9.30;72.10;;;;;;4969798;28;20217;-74
2021/11/19 13:02:37;;;;;;;10.38;7.15;;;9.30;72.30;;;;;;4982667;28;20244;-78
2021/11/19 13:05:18;;;;;;;8.95;6.10;;;9.20;72.60;;;;;;4971007;29;20591;-74
2021/11/19 13:08:08;;;;;;;10.10;6.30;;;9.20;73.60;;;;;;4969592;28;20201;-78